Terminal Aerodrome Forecast
Issued by NWS Wilmington, OH

Current Version | Previous Version | Text Only | Print | Product List | Glossary Off
Versions: 1 2 3 4 5 6 7 8 9 10 11 12 13 14 15 16 17 18 19 20 21 22 23

000
FTUS41 KILN 250500
TAFCVG
TAF
KCVG 250532Z 2506/2612 09004KT P6SM BKN250
      TEMPO 2509/2512 3SM BR FEW010
     FM251300 13006KT P6SM SCT060
     FM260000 15003KT P6SM SCT250=

USA.gov is the U.S. government's official web portal to all federal, state and local government web resources and services.